Time;durP1;ratioP1;P1;durP2;ratioP2;P2;SDS_P1;SDS_P2;PMS_P1;PMS_P2;Temp;Humidity;BMP_temperature;BMP_pressure;BME280_temperature;BME280_humidity;BME280_pressure;Samples;Min_cycle;Max_cycle;Signal;HPM_P1;HPM_P2
2021/11/01 00:01:07;;;;;;;34.47;20.98;;;;;;;1.29;100.00;93244.00;5031442;28;20072;-80
2021/11/01 00:03:34;;;;;;;29.60;19.83;;;;;;;1.26;100.00;93245.09;5031405;28;20049;-80
2021/11/01 00:06:01;;;;;;;30.20;20.63;;;;;;;1.23;100.00;93250.44;5030888;28;20052;-80
2021/11/01 00:08:28;;;;;;;31.13;20.70;;;;;;;1.05;100.00;93218.44;5030891;28;20051;-80
2021/11/01 00:10:55;;;;;;;28.60;18.85;;;;;;;1.14;100.00;93246.28;5031215;28;20053;-80
2021/11/01 00:13:22;;;;;;;31.02;19.65;;;;;;;1.10;100.00;93243.28;5031304;28;20048;-80
2021/11/01 00:15:50;;;;;;;27.40;17.40;;;;;;;1.08;100.00;93241.84;5031516;28;20054;-80
2021/11/01 00:18:17;;;;;;;27.38;17.42;;;;;;;1.04;100.00;93241.34;5030791;28;20126;-80
2021/11/01 00:20:44;;;;;;;23.58;16.27;;;;;;;1.02;100.00;93244.03;5030787;28;20096;-80
2021/11/01 00:23:11;;;;;;;29.83;17.13;;;;;;;0.91;100.00;93229.09;5031025;28;20111;-80
2021/11/01 00:25:38;;;;;;;38.55;22.98;;;;;;;0.99;100.00;93231.69;5031282;28;20049;-80
2021/11/01 00:28:06;;;;;;;40.47;23.60;;;;;;;0.70;100.00;93189.00;5030699;28;20052;-81
2021/11/01 00:30:33;;;;;;;45.90;27.88;;;;;;;0.97;100.00;93228.50;5030931;28;20071;-80
2021/11/01 00:33:01;;;;;;;46.60;27.35;;;;;;;1.00;100.00;93232.47;5030823;28;20803;-79
2021/11/01 00:35:28;;;;;;;50.17;28.35;;;;;;;0.93;100.00;93222.94;5030346;28;20046;-79
2021/11/01 00:37:54;;;;;;;52.85;30.08;;;;;;;1.04;100.00;93241.34;5030891;28;20100;-79
2021/11/01 00:40:21;;;;;;;38.65;23.10;;;;;;;0.92;100.00;93216.31;5030947;28;20053;-79
2021/11/01 00:42:48;;;;;;;36.42;23.02;;;;;;;0.95;100.00;93230.41;5030754;28;20045;-79
2021/11/01 00:45:15;;;;;;;35.85;21.02;;;;;;;0.97;100.00;93231.03;5030486;28;20385;-79
2021/11/01 00:47:42;;;;;;;32.47;21.73;;;;;;;0.84;100.00;93210.41;5030820;28;20057;-79
2021/11/01 00:50:10;;;;;;;34.78;20.65;;;;;;;0.90;100.00;93225.78;5030028;28;20049;-79
2021/11/01 00:52:38;;;;;;;32.20;19.65;;;;;;;0.92;100.00;93220.56;5030638;28;20052;-79
2021/11/01 00:55:09;;;;;;;34.50;21.13;;;;;;;0.91;100.00;93218.97;5030171;28;20286;-79
2021/11/01 00:57:36;;;;;;;31.08;18.73;;;;;;;0.89;100.00;93214.06;5030908;28;20107;-79
2021/11/01 01:00:04;;;;;;;26.05;17.00;;;;;;;0.85;100.00;93209.47;5030560;28;20049;-79
2021/11/01 01:02:33;;;;;;;25.42;16.48;;;;;;;0.81;100.00;93206.44;5029760;28;20044;-79
2021/11/01 01:05:01;;;;;;;24.60;15.68;;;;;;;0.78;100.00;93211.78;5030541;28;20044;-79
2021/11/01 01:07:29;;;;;;;26.38;17.15;;;;;;;0.69;100.00;93195.00;5030242;28;20560;-79
2021/11/01 01:09:56;;;;;;;27.58;17.00;;;;;;;0.72;100.00;93203.09;5030614;28;20091;-79
2021/11/01 01:12:24;;;;;;;25.67;16.42;;;;;;;0.68;100.00;93188.38;5030571;28;20126;-80
2021/11/01 01:14:56;;;;;;;24.20;17.58;;;;;;;0.66;100.00;93174.13;5029978;28;20059;-79
2021/11/01 01:17:24;;;;;;;25.10;17.88;;;;;;;0.64;100.00;93175.22;5030203;28;20049;-80
2021/11/01 01:19:57;;;;;;;25.83;17.45;;;;;;;0.68;100.00;93191.69;5030503;28;20099;-80
2021/11/01 01:22:28;;;;;;;27.33;18.17;;;;;;;0.65;100.00;93186.94;5030124;28;20045;-79
2021/11/01 01:25:10;;;;;;;27.75;19.73;;;;;;;0.57;100.00;93182.63;5031538;28;20629;-79
2021/11/01 01:30:24;;;;;;;25.73;17.80;;;;;;;0.56;100.00;93181.03;5031149;28;20064;-80
2021/11/01 01:32:52;;;;;;;27.60;17.60;;;;;;;0.50;100.00;93179.09;5029976;28;20048;-79
2021/11/01 01:35:19;;;;;;;27.05;16.88;;;;;;;0.51;100.00;93176.41;5029976;28;20053;-79
2021/11/01 01:37:45;;;;;;;27.58;16.45;;;;;;;0.59;100.00;93172.34;5030035;28;20041;-80
2021/11/01 01:40:16;;;;;;;25.85;16.33;;;;;;;0.57;100.00;93172.50;5030365;28;21132;-80
2021/11/01 01:42:44;;;;;;;27.88;17.85;;;;;;;0.56;100.00;93170.13;5030106;28;20480;-79
2021/11/01 01:45:13;;;;;;;30.50;18.27;;;;;;;0.55;100.00;93168.56;5030079;28;20052;-79
2021/11/01 01:47:41;;;;;;;33.78;21.73;;;;;;;0.44;100.00;93150.16;5029967;28;20567;-79
2021/11/01 01:50:10;;;;;;;30.90;20.23;;;;;;;0.36;100.00;93143.31;5028324;28;20088;-79
2021/11/01 01:52:38;;;;;;;32.03;19.90;;;;;;;0.44;100.00;93154.41;5027644;28;20092;-80
2021/11/01 01:55:07;;;;;;;32.88;21.27;;;;;;;0.46;100.00;93150.03;5028625;28;20057;-80
2021/11/01 01:57:36;;;;;;;37.40;23.50;;;;;;;0.40;100.00;93146.34;5028721;28;20053;-80
2021/11/01 02:00:05;;;;;;;35.40;20.98;;;;;;;0.38;100.00;93143.19;5028914;28;20128;-80
2021/11/01 02:02:32;;;;;;;34.42;20.92;;;;;;;0.38;100.00;93148.22;5028817;28;20053;-80
2021/11/01 02:04:59;;;;;;;35.00;21.35;;;;;;;0.24;100.00;93139.47;5028660;28;20056;-80
2021/11/01 02:07:33;;;;;;;38.50;23.13;;;;;;;0.34;100.00;93144.41;5028619;28;20517;-80
2021/11/01 02:10:05;;;;;;;30.50;18.45;;;;;;;0.06;100.00;93102.41;5028898;28;20045;-80
2021/11/01 02:12:40;;;;;;;30.17;16.52;;;;;;;0.30;100.00;93140.59;5028919;28;20068;-80
2021/11/01 02:15:11;;;;;;;28.58;18.45;;;;;;;0.26;100.00;93138.38;5030324;28;20045;-80
2021/11/01 02:17:40;;;;;;;27.52;17.98;;;;;;;0.24;100.00;93130.13;5032339;28;20099;-80
2021/11/01 02:20:11;;;;;;;30.67;18.35;;;;;;;0.21;100.00;93132.97;5031953;28;20057;-80
2021/11/01 02:22:50;;;;;;;26.35;16.95;;;;;;;0.20;100.00;93128.88;5032287;28;20045;-80
2021/11/01 02:25:30;;;;;;;30.50;17.85;;;;;;;0.14;100.00;93126.94;5031832;28;20052;-81
2021/11/01 02:27:57;;;;;;;29.52;19.20;;;;;;;0.13;100.00;93130.38;5032091;28;20054;-81
2021/11/01 02:30:24;;;;;;;32.35;19.60;;;;;;;0.09;100.00;93137.47;5031758;28;20053;-81
2021/11/01 02:32:52;;;;;;;32.20;20.92;;;;;;;0.08;100.00;93137.59;5031474;28;20041;-81
2021/11/01 02:35:20;;;;;;;33.67;21.48;;;;;;;0.06;100.00;93129.38;5031670;28;20096;-81
2021/11/01 02:37:46;;;;;;;32.70;21.40;;;;;;;0.06;100.00;93134.44;5031577;28;20056;-80
2021/11/01 02:40:13;;;;;;;37.05;22.20;;;;;;;-0.01;100.00;93127.44;5031676;28;20046;-80
2021/11/01 02:42:42;;;;;;;41.20;24.85;;;;;;;0.04;100.00;93134.56;5031858;28;20053;-80
2021/11/01 02:45:12;;;;;;;40.50;24.50;;;;;;;-0.20;100.00;93094.78;5031678;28;20453;-80
2021/11/01 02:47:39;;;;;;;38.38;24.42;;;;;;;0.12;100.00;93138.91;5031986;28;20068;-80
2021/11/01 02:50:08;;;;;;;40.22;24.48;;;;;;;0.03;100.00;93125.41;5031910;28;20056;-79
2021/11/01 02:52:35;;;;;;;41.88;24.70;;;;;;;0.03;100.00;93133.00;5031504;28;20521;-79
2021/11/01 02:55:05;;;;;;;47.05;28.48;;;;;;;-0.09;100.00;93116.50;5031296;28;20049;-79
2021/11/01 02:57:32;;;;;;;45.42;26.23;;;;;;;-0.01;100.00;93137.56;5031321;28;20490;-79
2021/11/01 03:00:00;;;;;;;43.53;25.85;;;;;;;0.01;100.00;93141.66;5031596;28;20406;-80
2021/11/01 03:02:27;;;;;;;45.25;25.50;;;;;;;0.02;100.00;93144.03;5031558;28;20819;-80
2021/11/01 03:04:54;;;;;;;47.03;27.23;;;;;;;-0.18;100.00;93116.44;5031532;28;20092;-79
2021/11/01 03:07:23;;;;;;;44.08;26.20;;;;;;;-0.05;100.00;93132.94;5031040;28;20053;-79
2021/11/01 03:09:52;;;;;;;44.10;26.30;;;;;;;-0.05;100.00;93131.19;5030981;28;20046;-79
2021/11/01 03:12:24;;;;;;;48.40;30.40;;;;;;;-0.11;100.00;93133.50;5031418;28;20049;-79
2021/11/01 03:14:57;;;;;;;43.72;26.48;;;;;;;-0.05;100.00;93130.44;5030866;28;20046;-79
2021/11/01 03:17:27;;;;;;;40.42;24.20;;;;;;;-0.05;100.00;93128.69;5029709;28;20041;-82
2021/11/01 03:19:59;;;;;;;41.35;23.20;;;;;;;-0.07;100.00;93132.28;5030882;28;20045;-81
2021/11/01 03:22:32;;;;;;;38.47;21.92;;;;;;;-0.15;100.00;93123.72;5031274;28;20050;-80
2021/11/01 03:25:04;;;;;;;39.78;22.25;;;;;;;-0.44;100.00;93084.38;5030482;28;20056;-80
2021/11/01 03:27:35;;;;;;;37.97;22.58;;;;;;;-0.21;100.00;93128.56;5030474;28;20050;-80
2021/11/01 03:30:03;;;;;;;41.83;23.08;;;;;;;-0.27;100.00;93127.41;5031167;28;20049;-79
2021/11/01 03:32:33;;;;;;;38.30;22.10;;;;;;;-0.22;100.00;93126.97;5030490;28;20099;-79
2021/11/01 03:35:02;;;;;;;38.65;21.60;;;;;;;-0.21;100.00;93128.56;5030912;28;20115;-80
2021/11/01 03:37:30;;;;;;;42.10;23.50;;;;;;;-0.28;100.00;93108.94;5030721;28;20556;-80
2021/11/01 03:39:59;;;;;;;53.17;29.25;;;;;;;-0.17;100.00;93129.84;5030934;28;20045;-80
2021/11/01 03:42:26;;;;;;;52.50;25.33;;;;;;;-0.17;100.00;93123.09;5030867;28;20132;-80
2021/11/01 03:45:00;;;;;;;50.03;25.88;;;;;;;-0.19;100.00;93119.91;5030794;28;20045;-80
2021/11/01 03:47:31;;;;;;;56.00;26.13;;;;;;;-0.12;100.00;93120.13;5030709;28;20065;-80
2021/11/01 03:50:03;;;;;;;50.58;25.85;;;;;;;-0.07;100.00;93122.19;5030782;28;20099;-81
2021/11/01 03:52:33;;;;;;;65.43;28.05;;;;;;;-0.17;100.00;93109.66;5030480;28;20060;-81
2021/11/01 03:55:01;;;;;;;55.35;29.17;;;;;;;-0.15;100.00;93118.66;5030701;28;20395;-81
2021/11/01 03:57:28;;;;;;;50.10;27.27;;;;;;;-0.19;100.00;93122.41;5030593;28;20063;-80
2021/11/01 03:59:56;;;;;;;52.67;26.95;;;;;;;-0.15;100.00;93122.91;5030343;28;20052;-79
2021/11/01 04:02:23;;;;;;;53.17;27.08;;;;;;;-0.13;100.00;93110.97;5030581;28;20095;-78
2021/11/01 04:04:52;;;;;;;49.13;26.38;;;;;;;-0.11;100.00;93108.25;5030288;28;20050;-78
2021/11/01 04:07:22;;;;;;;51.10;26.83;;;;;;;-0.28;100.00;93072.81;5029971;28;20564;-80
2021/11/01 04:09:48;;;;;;;51.78;27.75;;;;;;;-0.06;100.00;93106.09;5029888;28;20514;-81
2021/11/01 04:12:15;;;;;;;55.42;27.90;;;;;;;-0.12;100.00;93096.59;5029927;28;20052;-81
2021/11/01 04:14:45;;;;;;;56.08;26.95;;;;;;;0.04;100.00;93113.59;5030253;28;20184;-80
2021/11/01 04:17:21;;;;;;;53.38;27.30;;;;;;;0.05;100.00;93107.59;5029687;28;20049;-79
2021/11/01 04:19:56;;;;;;;55.05;26.77;;;;;;;0.07;100.00;93111.56;5029788;28;20053;-79
2021/11/01 04:22:26;;;;;;;51.20;26.13;;;;;;;0.06;100.00;93099.88;5030058;28;20054;-79
2021/11/01 04:24:53;;;;;;;56.58;26.40;;;;;;;0.11;100.00;93104.47;5029945;28;20049;-79
2021/11/01 04:27:20;;;;;;;58.20;26.70;;;;;;;0.13;100.00;93098.34;5029827;28;20053;-79
2021/11/01 04:29:47;;;;;;;57.75;27.65;;;;;;;0.11;100.00;93105.28;5029496;28;20053;-79
2021/11/01 04:32:29;;;;;;;56.28;26.30;;;;;;;0.09;100.00;93098.78;5029545;28;20132;-79
2021/11/01 04:35:00;;;;;;;54.35;28.70;;;;;;;0.12;100.00;93106.88;5029571;28;20118;-78
2021/11/01 04:37:29;;;;;;;59.72;27.88;;;;;;;0.07;100.00;93101.47;5028874;28;20172;-79
2021/11/01 04:40:16;;;;;;;57.92;28.92;;;;;;;0.08;100.00;93102.25;5030012;28;20134;-80
2021/11/01 04:53:42;;;;;;;68.18;31.95;;;;;;;-0.10;100.00;93082.88;5029418;28;20048;-81
2021/11/01 04:56:09;;;;;;;61.85;32.65;;;;;;;-0.05;100.00;93082.44;5028439;28;20089;-80
2021/11/01 04:58:36;;;;;;;61.97;30.20;;;;;;;-0.03;100.00;93083.09;5029803;28;20099;-83
2021/11/01 05:01:03;;;;;;;60.38;30.10;;;;;;;-0.09;100.00;93076.88;5029437;28;20049;-83
2021/11/01 05:03:37;;;;;;;56.92;29.65;;;;;;;-0.13;100.00;93073.09;5029053;28;20057;-80
2021/11/01 05:06:04;;;;;;;63.90;31.80;;;;;;;0.07;100.00;93095.59;5029157;28;20521;-81
2021/11/01 05:08:39;;;;;;;66.53;33.90;;;;;;;0.05;100.00;93097.50;5029124;28;20049;-81
2021/11/01 05:11:14;;;;;;;61.97;31.65;;;;;;;0.02;100.00;93092.72;5029098;28;20056;-79
2021/11/01 05:13:41;;;;;;;60.75;31.80;;;;;;;0.00;100.00;93092.91;5029099;28;20046;-79
2021/11/01 05:16:13;;;;;;;63.63;32.42;;;;;;;0.00;100.00;93090.38;5029143;28;20054;-79
2021/11/01 05:18:45;;;;;;;58.03;31.08;;;;;;;0.00;100.00;93095.44;5029009;28;20137;-79
2021/11/01 05:21:30;;;;;;;67.10;33.20;;;;;;;0.05;100.00;93093.22;5028845;28;20564;-78
2021/11/01 05:24:01;;;;;;;71.70;36.22;;;;;;;-0.01;100.00;93099.69;5029313;28;20049;-78
2021/11/01 05:26:39;;;;;;;73.10;36.63;;;;;;;0.02;100.00;93102.84;5029038;28;20050;-78
2021/11/01 05:29:08;;;;;;;77.00;39.75;;;;;;;-0.07;100.00;93080.06;5029202;28;20053;-80
2021/11/01 05:31:43;;;;;;;77.93;37.83;;;;;;;-0.29;100.00;93087.16;5028819;28;20052;-81
2021/11/01 05:34:11;;;;;;;59.08;31.65;;;;;;;-0.45;100.00;93059.28;5028886;28;20045;-80
2021/11/01 05:36:39;;;;;;;54.03;30.25;;;;;;;-0.22;100.00;93096.69;5028876;28;20052;-81
2021/11/01 05:39:07;;;;;;;56.42;31.33;;;;;;;-0.42;100.00;93079.16;5028725;28;20184;-81
2021/11/01 05:41:36;;;;;;;58.55;31.15;;;;;;;-0.54;100.00;93107.13;5029274;28;20061;-81
2021/11/01 05:44:04;;;;;;;80.60;38.92;;;;;;;-0.52;100.00;93114.56;5029626;28;20521;-81
2021/11/01 05:46:34;;;;;;;75.78;34.80;;;;;;;-0.39;100.00;93111.69;5029167;28;20418;-80
2021/11/01 05:49:02;;;;;;;70.07;34.47;;;;;;;-0.44;100.00;93116.38;5031028;28;20053;-79
2021/11/01 05:51:30;;;;;;;67.43;32.08;;;;;;;-0.45;100.00;93097.13;5032330;28;20049;-79
2021/11/01 05:53:59;;;;;;;68.97;32.90;;;;;;;-0.29;100.00;93107.34;5032809;28;20050;-79
2021/11/01 05:56:34;;;;;;;88.60;42.35;;;;;;;-0.40;100.00;93112.63;5032467;28;20041;-79
2021/11/01 06:04:49;;;;;;;91.65;51.28;;;;;;;-0.28;100.00;93083.69;5018494;28;20053;-80
2021/11/01 06:07:26;;;;;;;59.80;31.50;;;;;;;-0.14;100.00;93097.53;5032291;28;20057;-79
2021/11/01 06:10:02;;;;;;;53.70;29.92;;;;;;;0.08;100.00;93123.25;5032336;28;20053;-79
2021/11/01 06:15:14;;;;;;;74.93;38.05;;;;;;;0.11;100.00;93099.44;5032138;28;20060;-81
2021/11/01 06:17:42;;;;;;;66.43;32.85;;;;;;;0.34;100.00;93114.91;5032358;28;20060;-81
2021/11/01 06:20:10;;;;;;;61.55;33.17;;;;;;;0.35;100.00;93087.88;5031860;28;20410;-81
2021/11/01 06:22:37;;;;;;;65.95;33.33;;;;;;;0.61;100.00;93115.63;5032256;28;20057;-82
2021/11/01 06:25:06;;;;;;;65.85;32.60;;;;;;;0.25;100.00;93067.78;5028665;28;20045;-81
2021/11/01 06:27:34;;;;;;;66.55;34.80;;;;;;;0.77;100.00;93120.00;5029924;28;20091;-82
2021/11/01 06:30:10;;;;;;;70.15;34.38;;;;;;;0.91;100.00;93121.16;5032333;28;20053;-82
2021/11/01 06:32:43;;;;;;;64.78;33.08;;;;;;;1.08;100.00;93112.81;5032048;28;20053;-81
2021/11/01 06:43:45;;;;;;;63.50;33.75;;;;;;;0.97;100.00;93114.69;4970193;28;20117;-81
2021/11/01 06:55:13;;;;;;;76.95;36.72;;;;;;;0.90;100.00;93106.94;4970014;28;20061;-81
2021/11/01 06:57:46;;;;;;;78.00;39.05;;;;;;;0.91;100.00;93103.44;5025139;28;20049;-80
2021/11/01 07:14:21;;;;;;;111.32;53.40;;;;;;;1.75;100.00;93117.03;5030962;28;20060;-81
2021/11/01 07:16:51;;;;;;;109.45;50.78;;;;;;;1.73;100.00;93081.75;5030960;28;20434;-81
2021/11/01 07:19:27;;;;;;;109.88;49.40;;;;;;;2.03;100.00;93115.94;5031284;28;20053;-81
2021/11/01 07:22:15;;;;;;;125.85;57.92;;;;;;;2.18;100.00;93111.78;5031166;28;20053;-81
2021/11/01 07:25:22;;;;;;;124.75;58.90;;;;;;;2.36;100.00;93114.16;5031589;28;20049;-81
2021/11/01 08:22:59;;;;;;;100.65;53.13;;;;;;;3.29;100.00;93032.41;5029744;28;20056;-79
2021/11/01 08:25:51;;;;;;;109.85;54.67;;;;;;;3.95;100.00;93074.34;5029943;28;20137;-79
2021/11/01 08:47:41;;;;;;;;;;;;;;;5.18;100.00;93042.59;5029910;28;20061;-79
2021/11/01 08:50:40;;;;;;;98.63;50.78;;;;;;;5.42;100.00;93035.56;5029062;28;19935;-79
2021/11/01 09:02:03;;;;;;;65.65;36.00;;;;;;;5.81;100.00;93027.66;5029258;28;20060;-80
2021/11/01 09:04:44;;;;;;;67.47;39.08;;;;;;;5.84;100.00;92989.84;5028845;28;20092;-80
2021/11/01 09:10:23;;;;;;;70.32;36.42;;;;;;;6.50;100.00;93018.53;5026751;28;20096;-80
2021/11/01 09:18:49;;;;;;;76.43;39.38;;;;;;;7.41;100.00;93004.84;5028882;28;20060;-81
2021/11/01 09:21:33;;;;;;;68.63;35.38;;;;;;;7.60;99.89;93008.41;5029108;28;20056;-81
2021/11/01 09:24:29;;;;;;;70.80;35.13;;;;;;;7.53;98.44;92980.28;5031316;28;20042;-80
2021/11/01 09:26:57;;;;;;;67.97;36.15;;;;;;;7.83;98.52;93000.31;5033268;28;20045;-81
2021/11/01 09:29:32;;;;;;;71.05;34.20;;;;;;;8.04;99.03;92985.00;5033192;28;20410;-80
2021/11/01 09:37:54;;;;;;;81.60;37.88;;;;;;;8.54;96.85;92972.50;5032710;28;20056;-79
2021/11/01 09:43:07;;;;;;;58.85;30.98;;;;;;;9.16;95.03;92970.44;5032957;28;20528;-81
2021/11/01 09:45:36;;;;;;;63.50;34.30;;;;;;;9.39;95.32;92971.66;5032970;28;20072;-81
2021/11/01 09:48:04;;;;;;;56.95;30.13;;;;;;;9.47;92.44;92968.81;5032812;28;20144;-81
2021/11/01 09:50:35;;;;;;;59.88;32.88;;;;;;;9.52;93.54;92945.91;5032168;28;20517;-80
2021/11/01 09:53:09;;;;;;;62.53;33.55;;;;;;;9.76;90.43;92962.28;5032853;28;20096;-81
2021/11/01 09:55:50;;;;;;;61.03;33.55;;;;;;;9.52;91.18;92948.47;5032398;28;20644;-80
2021/11/01 10:01:05;;;;;;;48.47;28.40;;;;;;;9.86;89.46;92930.25;5032470;28;20060;-80
2021/11/01 10:03:34;;;;;;;57.38;30.40;;;;;;;10.09;90.80;92933.97;5032525;28;20049;-81
2021/11/01 10:06:02;;;;;;;45.03;25.27;;;;;;;10.26;89.98;92940.13;5032557;28;20128;-81
2021/11/01 10:08:30;;;;;;;41.38;26.40;;;;;;;10.35;89.30;92938.03;5032543;28;20057;-80
2021/11/01 10:10:58;;;;;;;42.95;25.50;;;;;;;10.46;89.56;92930.66;5032272;28;20056;-80
2021/11/01 10:13:27;;;;;;;42.40;24.60;;;;;;;10.63;89.44;92908.50;5032151;28;20490;-81
2021/11/01 10:18:44;;;;;;;43.67;22.73;;;;;;;11.03;84.78;92896.94;5032177;28;20060;-81
2021/11/01 10:21:15;;;;;;;73.55;36.58;;;;;;;11.47;85.92;92921.56;5031787;28;20636;-80
2021/11/01 10:23:50;;;;;;;85.25;41.55;;;;;;;11.72;82.64;92921.38;5032507;28;20051;-81
2021/11/01 10:26:20;;;;;;;87.95;42.25;;;;;;;11.95;81.97;92916.47;5037591;28;20041;-80
2021/11/01 10:28:48;;;;;;;39.67;21.48;;;;;;;12.00;80.08;92891.59;5033576;28;20103;-81
2021/11/01 10:31:19;;;;;;;45.85;24.90;;;;;;;12.28;80.01;92889.34;5036157;28;20041;-81
2021/11/01 10:33:47;;;;;;;34.60;19.00;;;;;;;12.56;78.27;92896.31;5037722;28;20080;-81
2021/11/01 10:36:28;;;;;;;25.20;15.45;;;;;;;12.72;77.38;92891.44;5036357;28;20422;-81
2021/11/01 10:38:56;;;;;;;20.83;12.43;;;;;;;12.72;75.98;92867.47;5037123;28;20507;-81
2021/11/01 10:41:28;;;;;;;22.33;12.32;;;;;;;12.79;76.58;92863.75;5037540;28;20599;-81
2021/11/01 10:44:10;;;;;;;45.40;23.45;;;;;;;12.88;75.92;92851.28;5037738;28;20080;-81
2021/11/01 11:11:50;;;;;;;12.85;8.88;;;;;;;13.69;67.83;92856.34;5036807;28;20072;-82
2021/11/01 11:14:25;;;;;;;13.55;8.70;;;;;;;13.61;67.75;92832.50;5037023;28;20135;-82
2021/11/01 11:17:09;;;;;;;17.40;10.37;;;;;;;13.81;67.34;92846.72;5036709;28;20052;-82
2021/11/01 11:28:04;;;;;;;11.60;8.00;;;;;;;14.07;63.61;92831.53;5028002;28;20057;-82
2021/11/01 11:30:59;;;;;;;10.50;6.57;;;;;;;14.19;62.43;92838.38;5036666;28;20049;-82
2021/11/01 11:47:47;;;;;;;10.43;7.28;;;;;;;14.30;57.56;92821.97;5005157;28;20053;-82
2021/11/01 11:50:18;;;;;;;10.65;6.60;;;;;;;14.29;57.50;92813.44;5036546;28;20037;-82
2021/11/01 11:52:46;;;;;;;12.23;6.60;;;;;;;14.34;57.88;92812.72;5036871;28;20061;-82
2021/11/01 11:55:20;;;;;;;11.38;6.63;;;;;;;14.42;56.02;92808.91;5036826;28;21322;-82
2021/11/01 11:57:57;;;;;;;10.02;6.35;;;;;;;14.33;56.02;92784.53;5037012;28;20054;-82
2021/11/01 12:00:26;;;;;;;16.50;7.78;;;;;;;14.51;53.69;92798.94;5036415;28;20049;-81
2021/11/01 12:02:55;;;;;;;11.43;7.32;;;;;;;14.56;55.40;92802.34;5035194;28;20045;-82
2021/11/01 12:05:46;;;;;;;12.55;6.82;;;;;;;14.56;54.64;92802.34;5034313;28;20075;-82
2021/11/01 12:08:23;;;;;;;11.18;6.38;;;;;;;14.36;53.82;92763.38;5035124;28;20151;-82
2021/11/01 12:14:19;;;;;;;10.07;6.53;;;;;;;14.66;55.37;92788.72;5034511;28;20048;-82
2021/11/01 12:17:08;;;;;;;10.85;6.43;;;;;;;14.53;52.99;92771.81;5034324;28;20049;-82
2021/11/01 12:19:36;;;;;;;10.20;5.30;;;;;;;14.63;49.47;92786.63;5035364;28;20127;-82
2021/11/01 12:22:09;;;;;;;9.38;5.50;;;;;;;14.67;51.77;92789.50;5035336;28;20049;-82
2021/11/01 12:24:37;;;;;;;14.07;7.05;;;;;;;14.52;52.54;92752.16;5034570;28;20044;-82
2021/11/01 12:27:05;;;;;;;12.07;6.70;;;;;;;14.69;52.85;92775.31;5034834;28;20054;-82
2021/11/01 12:29:34;;;;;;;10.93;7.28;;;;;;;14.70;52.04;92773.50;5035284;28;20056;-83
2021/11/01 12:32:06;;;;;;;11.68;6.82;;;;;;;14.68;51.48;92776.34;5034627;28;20060;-83
2021/11/01 12:34:37;;;;;;;10.10;6.15;;;;;;;14.69;51.02;92772.72;5034005;28;20057;-83
2021/11/01 12:37:41;;;;;;;12.40;6.80;;;;;;;14.70;52.20;92771.72;5033531;28;20087;-82
2021/11/01 12:40:23;;;;;;;14.98;6.63;;;;;;;14.56;53.17;92745.50;5034765;28;20167;-82
2021/11/01 12:43:03;;;;;;;11.27;6.85;;;;;;;14.62;53.04;92769.56;5035591;28;20128;-82
2021/11/01 12:59:11;;;;;;;14.40;6.85;;;;;;;14.52;53.37;92757.34;5033680;28;20055;-81
2021/11/01 13:01:52;;;;;;;14.98;7.13;;;;;;;14.51;52.54;92750.63;5034758;28;20045;-82
2021/11/01 13:04:35;;;;;;;16.02;6.63;;;;;;;14.37;52.53;92734.72;5033829;28;20486;-81
2021/11/01 13:07:14;;;;;;;13.23;7.32;;;;;;;14.28;53.17;92725.84;5033924;28;20050;-82
2021/11/01 13:09:45;;;;;;;12.68;7.18;;;;;;;14.37;51.93;92747.66;5033575;28;20138;-81
2021/11/01 13:12:40;;;;;;;12.70;6.40;;;;;;;14.39;51.78;92744.78;5035618;28;20517;-82
2021/11/01 13:18:09;;;;;;;9.57;6.32;;;;;;;14.25;52.00;92741.81;5034707;28;21476;-82
2021/11/01 13:20:38;;;;;;;15.00;7.00;;;;;;;14.23;52.09;92742.09;5035118;28;20064;-82
2021/11/01 13:23:06;;;;;;;27.30;11.48;;;;;;;14.07;51.77;92720.47;5034797;28;20140;-82
2021/11/01 13:25:39;;;;;;;10.00;6.60;;;;;;;14.10;50.90;92732.13;5034940;28;20053;-82
2021/11/01 13:28:29;;;;;;;9.27;6.30;;;;;;;14.12;49.88;92725.69;5034621;28;20046;-81
2021/11/01 13:36:39;;;;;;;13.38;6.45;;;;;;;14.03;52.51;92727.94;5034540;28;20572;-81
2021/11/01 13:39:08;;;;;;;13.48;8.35;;;;;;;13.96;53.52;92731.72;5034406;28;20124;-81
2021/11/01 13:41:35;;;;;;;12.02;7.25;;;;;;;13.87;52.72;92732.16;5034312;28;20101;-81
2021/11/01 13:44:09;;;;;;;16.10;7.22;;;;;;;13.85;53.00;92720.53;5034416;28;20053;-82
2021/11/01 13:46:44;;;;;;;16.08;7.22;;;;;;;13.82;52.14;92723.56;5032589;28;20060;-82
2021/11/01 13:49:13;;;;;;;14.90;7.72;;;;;;;13.71;52.38;92714.94;5029569;28;20053;-82
2021/11/01 13:51:42;;;;;;;12.95;7.55;;;;;;;13.75;53.14;92718.63;5030284;28;20050;-80
2021/11/01 13:54:12;;;;;;;14.80;8.02;;;;;;;13.64;54.17;92717.69;5030170;28;20049;-82
2021/11/01 13:56:42;;;;;;;13.98;7.22;;;;;;;13.70;53.85;92731.47;5030248;28;20050;-82
2021/11/01 13:59:24;;;;;;;12.93;7.32;;;;;;;13.66;54.23;92731.13;5027721;28;20049;-81
2021/11/01 14:02:08;;;;;;;15.00;7.60;;;;;;;13.66;54.03;92731.13;5006209;28;20046;-82
2021/11/01 14:13:09;;;;;;;15.00;7.93;;;;;;;13.51;54.32;92730.97;4988266;28;20052;-81
2021/11/01 14:18:42;;;;;;;14.38;7.63;;;;;;;13.42;55.18;92728.00;4986850;28;21079;-81
2021/11/01 14:29:36;;;;;;;20.58;9.30;;;;;;;13.32;56.07;92728.63;5012136;28;20092;-81
2021/11/01 14:32:27;;;;;;;16.25;9.07;;;;;;;13.24;56.02;92729.81;5012269;28;20068;-82
2021/11/01 15:16:47;;;;;;;15.77;8.20;;;;;;;12.01;60.09;92697.56;5009439;28;20053;-82
2021/11/01 15:19:30;;;;;;;15.48;9.40;;;;;;;12.01;60.48;92702.69;5011169;28;20521;-82
2021/11/01 15:22:10;;;;;;;11.40;8.02;;;;;;;11.90;60.55;92708.69;5010843;28;20054;-82
2021/11/01 15:33:21;;;;;;;14.02;9.38;;;;;;;11.44;62.42;92695.72;5010850;28;20053;-82
2021/11/01 15:36:10;;;;;;;25.05;12.25;;;;;;;11.30;62.77;92702.91;5011124;28;20057;-82
2021/11/01 15:38:58;;;;;;;37.40;14.90;;;;;;;11.20;63.69;92703.47;5010743;28;20053;-82
2021/11/01 16:17:27;;;;;;;62.38;28.10;;;;;;;9.94;69.34;92709.31;5031089;28;20913;-82
2021/11/01 16:19:54;;;;;;;72.05;32.63;;;;;;;9.84;70.24;92716.75;5031113;28;20136;-83
2021/11/01 16:22:23;;;;;;;36.00;20.08;;;;;;;9.79;70.95;92714.06;5030952;28;20464;-83
2021/11/01 16:24:50;;;;;;;31.50;18.48;;;;;;;9.69;71.07;92712.00;5030986;28;20428;-82
2021/11/01 16:27:20;;;;;;;31.00;19.15;;;;;;;9.60;71.95;92716.66;5031445;28;20041;-83
2021/11/01 16:29:51;;;;;;;31.60;18.95;;;;;;;9.55;72.44;92716.50;5030971;28;20049;-82
2021/11/01 16:32:22;;;;;;;34.75;20.60;;;;;;;9.29;72.83;92687.59;5030272;28;20052;-82
2021/11/01 16:34:52;;;;;;;56.90;31.58;;;;;;;9.40;73.93;92722.00;5030330;28;20179;-82
2021/11/01 16:40:05;;;;;;;174.27;81.18;;;;;;;9.26;74.77;92729.81;5029162;28;20057;-82
2021/11/01 16:42:34;;;;;;;158.95;75.88;;;;;;;9.19;75.19;92735.03;5031223;28;20053;-81
2021/11/01 16:45:08;;;;;;;181.10;82.82;;;;;;;9.19;75.64;92732.47;5031240;28;20489;-81
2021/11/01 16:47:37;;;;;;;76.35;39.00;;;;;;;9.15;75.99;92730.53;5030529;28;20049;-82
2021/11/01 16:50:06;;;;;;;55.33;27.20;;;;;;;8.87;76.46;92704.38;5030831;28;20049;-81
2021/11/01 16:52:33;;;;;;;56.55;30.17;;;;;;;9.01;76.48;92737.56;5030657;28;20045;-81
2021/11/01 16:55:04;;;;;;;47.67;28.02;;;;;;;8.88;76.80;92723.13;5030522;28;20056;-81
2021/11/01 16:57:35;;;;;;;50.33;29.63;;;;;;;8.84;77.57;92722.72;5030211;28;20120;-81
2021/11/01 17:00:12;;;;;;;42.70;24.63;;;;;;;8.85;77.83;92737.13;5030749;28;20780;-81
2021/11/01 17:02:49;;;;;;;43.80;24.88;;;;;;;8.80;78.30;92744.66;5030237;28;20521;-81
2021/11/01 17:05:32;;;;;;;40.75;24.08;;;;;;;8.72;79.15;92743.13;5030032;28;20511;-81
2021/11/01 17:08:38;;;;;;;42.60;23.40;;;;;;;8.71;79.50;92736.44;5030229;28;20584;-82
2021/11/01 17:22:13;;;;;;;87.85;47.30;;;;;;;8.50;81.69;92751.13;5030163;28;20072;-81
2021/11/01 17:24:45;;;;;;;65.47;38.05;;;;;;;8.47;81.82;92758.44;5030378;28;20049;-81
2021/11/01 17:27:31;;;;;;;61.03;34.97;;;;;;;8.43;82.28;92760.66;5030325;28;20052;-80
2021/11/01 17:36:04;;;;;;;81.63;46.95;;;;;;;8.22;82.93;92762.53;4955944;28;20128;-81
2021/11/01 18:45:22;;;;;;;36.15;19.55;;;;;;;7.48;88.57;92788.41;5030241;28;20367;-83
2021/11/01 18:53:38;;;;;;;42.05;23.80;;;;;;;7.39;88.49;92782.72;5026551;28;20084;-84